Havelock, North Dakota
Current Conditions -  °F | °C
As of 10:56 PM on Saturday 20 Dec 2014 (Local Time) from KDIK Reporting Station
Clear Clear  
Wind Chill: 28°   Ceiling: Unl
Heat Index: 28°   Visibility: 10mi
Dew Point: 20°   Wind: 0mph
Humidity: 72%   Direction: NA
Pressure: 29.71"   Gusts: NA
Location:  46.4704°N, 102.78°W
Report Text: KDIK 210556Z AUTO 00000KT 10SM CLR M02/M07 A2971 RMK AO2 SLP082 T10221067 10011 21033 58014
Loading
Personal Weather Stations






























Interactive Weather Map New forecast layout! Learn more

10-Day Weather Forecast

Advertisements
Track Severe Weather on mobile